Login
Access
Login with your mtb-forum.it nickname and password.


You do not have an account? Sign up here for free

CarloTheMast

Last training unit 04/03/2015
2
Followers
49 423 Km
itineraries
585 935 m
of total vertical gain
1750
hours of riding
28.26 Km/h
average speed
152
average HR


04/03/2015 Show to everybody Primo giretto di marzo 51.11 Km 512 m 02:01:09 25.31 Km\h Scotto C1 2010
20/02/2015 Show to everybody Tentato allenamento serio xD 64.58 Km 585 m 02:22:07 27.27 Km\h Scotto C1 2010
11/02/2015 Show to everybody Uscita pomeridiana 46.55 Km 516 m 01:53:56 24.51 Km\h Scotto C1 2010
27/01/2015 Show to everybody Pianura e giro dell\`isola con Emilio 61.88 Km 917 m 02:30:45 24.63 Km\h Scotto C1 2010
04/01/2015 Show to everybody Prima uscita 2015 71.28 Km 843 m 02:38:40 26.95 Km\h Scotto C1 2010
13/12/2014 Show to everybody Lavoro 2 21.87 Km 341 m 00:47:57 27.37 Km\h Scotto C1 2010
10/12/2014 Show to everybody Lavoro 1 30.04 Km 369 m 01:09:21 25.99 Km\h Scotto C1 2010
04/12/2014 Show to everybody Sgambata mattutina sotto la pioggia 41.78 Km 468 m 01:30:34 27.68 Km\h Scotto C1 2010
23/11/2014 Show to everybody Pianura con Angelo e giro dell\`isola 66.17 Km 834 m 02:34:00 25.78 Km\h Scotto C1 2010
19/11/2014 Show to everybody Due orette contro vento 60.27 Km 491 m 02:03:01 29.4 Km\h Scotto C1 2010
16/11/2014 Show to everybody Sbagambata domenicale 60.94 Km 872 m 02:11:46 27.75 Km\h Scotto C1 2010
14/11/2014 Show to everybody Na bella jurnat e sol :) 62.81 Km 1037 m 02:22:19 26.48 Km\h Scotto C1 2010
09/11/2014 Show to everybody Pianura forio-casamicciola e giro dell\`isola 72.87 Km 952 m 02:31:27 28.87 Km\h Scotto C1 2010
02/11/2014 Show to everybody Sgamabta domenicale 60.24 Km 1058 m 02:22:00 25.45 Km\h Scotto C1 2010
31/10/2014 Show to everybody Pianura con Luca e giro dell\`isola da solo 60.06 Km 746 m 02:08:29 28.05 Km\h Scotto C1 2010
29/10/2014 Show to everybody 1 ora con luca 1 da solo 61.48 Km 572 m 02:07:31 28.93 Km\h Scotto C1 2010
28/10/2014 Show to everybody Pianura e giro dell\`isola 61.44 Km 781 m 02:12:19 27.86 Km\h Scotto C1 2010
26/10/2014 Show to everybody 2 orette domenicali 60.63 Km 858 m 02:13:28 27.26 Km\h Scotto C1 2010
25/10/2014 Show to everybody 1 oretta e mezza di pianura a forio 50.98 Km 299 m 01:42:48 29.75 Km\h Scotto C1 2010
23/10/2014 Show to everybody Pianura con Giovanni e il vento gelido 60.83 Km 567 m 02:09:05 28.28 Km\h Scotto C1 2010
17/10/2014 Show to everybody Strappetti a tutta e giro dell\`isola 71.8 Km 1037 m 02:39:07 27.08 Km\h Scotto C1 2010
14/10/2014 Show to everybody Sgambata con vento 70.6 Km 913 m 02:32:41 27.74 Km\h Scotto C1 2010
12/10/2014 Show to everybody Si riprende a macinare km 100.89 Km 998 m 03:30:49 28.71 Km\h Scotto C1 2010
04/10/2014 Show to everybody Sgambata veloce 40.97 Km 500 m 01:33:11 26.38 Km\h Scotto C1 2010
03/10/2014 Show to everybody Una bella giornata autunnale 80.96 Km 1384 m 03:08:58 25.7 Km\h Scotto C1 2010
30/09/2014 Show to everybody Finalmente sto bene! xD 61.41 Km 1130 m 02:24:10 25.56 Km\h Scotto C1 2010
28/09/2014 Show to everybody Pianura e giro 100.09 Km 923 m 03:39:56 27.31 Km\h Scotto C1 2010
26/09/2014 Show to everybody Pianura e giro con Luca e Massimo 61.64 Km 685 m 02:16:07 27.17 Km\h Scotto C1 2010
23/09/2014 Show to everybody Sgambata da solo 51.77 Km 738 m 01:58:52 26.13 Km\h Scotto C1 2010
20/09/2014 Show to everybody Passeggiata con Luca 40.01 Km 330 m 01:32:24 25.98 Km\h Scotto C1 2010
19/09/2014 Show to everybody Agilità in pianura 45.58 Km 249 m 01:37:08 28.16 Km\h Scotto C1 2010
17/09/2014 Show to everybody Agilità da solo 45.08 Km 511 m 01:36:00 28.17 Km\h Scotto C1 2010
16/09/2014 Show to everybody Agilità con Luca e Leo 51.42 Km 235 m 01:45:29 29.25 Km\h Scotto C1 2010
14/09/2014 Show to everybody 2 giri dell\`isola 85.31 Km 1434 m 03:27:50 24.63 Km\h Scotto C1 2010
09/09/2014 Show to everybody Finalmente senza problemi al ginocchio 70.97 Km 1407 m 02:49:01 25.19 Km\h Scotto C1 2010
07/09/2014 Show to everybody Pianura e due giri dell\`isola 101.78 Km 1427 m 03:38:53 27.9 Km\h Scotto C1 2010
04/09/2014 Show to everybody Pianura Casamicciola e Forio 62.87 Km 559 m 02:10:43 28.86 Km\h Scotto C1 2010
31/08/2014 Show to everybody Pianura e giro 100.59 Km 872 m 03:31:23 28.55 Km\h Scotto C1 2010
28/08/2014 Show to everybody Pianura in agilità 60.56 Km 301 m 02:13:40 27.19 Km\h Scotto C1 2010
25/08/2014 Show to everybody Scarico con luca 60.74 Km 434 m 02:18:12 26.37 Km\h Scotto C1 2010
24/08/2014 Show to everybody Ancora dolori al ginocchio 80.62 Km 636 m 02:57:14 27.29 Km\h Scotto C1 2010
18/08/2014 Show to everybody Scarico e relax 51.09 Km 797 m 02:26:15 20.96 Km\h Scotto C1 2010
17/08/2014 Show to everybody Pianura e due giri dell\`isola con michele ernesto e luca 100.27 Km 1467 m 03:40:16 27.31 Km\h Scotto C1 2010
15/08/2014 Show to everybody Solo salite dure da solo con il vento! 89.13 Km 1991 m 03:51:54 23.06 Km\h Scotto C1 2010
10/08/2014 Show to everybody pianura 2 giri dell\`isola e traffico .-. 101.26 Km 1377 m 03:50:55 26.31 Km\h Scotto C1 2010
07/08/2014 Show to everybody Pianura 2 giri dell\`isola, sant\`angelo, maronti e ripetute con ernesto e luca 100.96 Km 1515 m 04:01:15 25.11 Km\h Scotto C1 2010
05/08/2014 Show to everybody 2 volte a fontana con giro, e pianura da solo 87.06 Km 1229 m 03:14:04 26.92 Km\h Scotto C1 2010
03/08/2014 Show to everybody Pianura e giro che stanchità! 102.07 Km 1112 m 03:47:28 26.92 Km\h Scotto C1 2010
02/08/2014 Show to everybody Scarico sotto il sole ^-^ 50.86 Km 305 m 01:46:34 28.64 Km\h Scotto C1 2010
29/07/2014 Show to everybody 1 ora a 40 di media, 1 ora di scarico 66.54 Km 359 m 02:03:36 32.3 Km\h Scotto C1 2010
27/07/2014 Show to everybody Allenamento al tramonto 64.46 Km 816 m 02:20:54 27.45 Km\h Scotto C1 2010
23/07/2014 Show to everybody Agilità e salite con Luca 50.5 Km 1124 m 02:01:16 24.99 Km\h Scotto C1 2010
20/07/2014 Show to everybody Ritorno dopo 10 giorni di influenza 103.14 Km 735 m 03:25:17 30.15 Km\h Scotto C1 2010
11/07/2014 Show to everybody Super uscita da solo :3 75.08 Km 1012 m 02:43:57 27.48 Km\h Scotto C1 2010
08/07/2014 Show to everybody 1 ora di pianura a tutta 1 di scarico 62.63 Km 305 m 01:50:18 34.07 Km\h Scotto C1 2010
07/07/2014 Show to everybody 1 oretta e mezza intensa 54.77 Km 521 m 01:48:02 30.42 Km\h Scotto C1 2010
04/07/2014 Show to everybody Pianura con luca 75.44 Km 526 m 02:31:25 29.89 Km\h Scotto C1 2010
01/07/2014 Show to everybody Pianura con leo 71.51 Km 417 m 02:13:55 32.04 Km\h Scotto C1 2010
30/06/2014 Show to everybody Scarico e agilità con luca 51.69 Km 251 m 01:51:27 27.83 Km\h Scotto C1 2010
27/06/2014 Show to everybody Morto di sonno xD 56.97 Km 888 m 02:10:46 26.14 Km\h Scotto C1 2010
26/06/2014 Show to everybody 2 orette di svago mentale 53.21 Km 865 m 02:04:12 25.71 Km\h Scotto C1 2010
22/06/2014 Show to everybody Pianura Ischia - Giro dell\`isola - pianura Forio 101.73 Km 1041 m 03:30:16 29.03 Km\h Scotto C1 2010
21/06/2014 Show to everybody Giro dell\`isola con ernesto e michele 74.95 Km 1377 m 02:53:12 25.96 Km\h Scotto C1 2010
17/06/2014 Show to everybody Pianura all\`alba 73.29 Km 328 m 02:11:35 33.42 Km\h Scotto C1 2010
15/06/2014 Show to everybody Pianura a tutta e due giri dell\`isola 116.67 Km 1331 m 03:48:43 30.61 Km\h Scotto C1 2010
12/06/2014 Show to everybody Pianura a giro a tutta 112.37 Km 1082 m 03:43:30 30.17 Km\h Scotto C1 2010
10/06/2014 Show to everybody Cambio raggio e un pò di pianura 52.36 Km 451 m 01:47:06 29.34 Km\h Scotto C1 2010
08/06/2014 Show to everybody Raggio spezzato 102.44 Km 412 m 03:15:37 31.42 Km\h Scotto C1 2010
07/06/2014 Show to everybody Giretto di sabato pomeriggio 60.64 Km 830 m 02:12:18 27.5 Km\h Scotto C1 2010
04/06/2014 Show to everybody Solo salite dure! 71.6 Km 1468 m 02:56:51 24.29 Km\h Scotto C1 2010
03/06/2014 Show to everybody 100 pedalate medie 60.49 Km 285 m 02:05:00 29.03 Km\h Scotto C1 2010
01/06/2014 Show to everybody Primo di giugno 116.21 Km 1174 m 04:01:05 28.92 Km\h Scotto C1 2010
29/05/2014 Show to everybody Annoiato 42.16 Km 821 m 01:40:11 25.25 Km\h Scotto C1 2010
28/05/2014 Show to everybody Pianura con battiti bassi 61.32 Km 402 m 02:06:50 29.01 Km\h Scotto C1 2010
27/05/2014 Show to everybody Pianura a tirare e giro in relax 103.05 Km 1007 m 03:20:27 30.85 Km\h Scotto C1 2010
24/05/2014 Show to everybody Salita a fontana, sant\`angelo e pianura a forio 52.39 Km 782 m 01:53:55 27.6 Km\h Scotto C1 2010
21/05/2014 Show to everybody Giro e pianura di pomeriggio 106.21 Km 888 m 03:36:27 29.44 Km\h Scotto C1 2010
18/05/2014 Show to everybody Nove Colli 2014 - Medio 132.65 Km 1973 m 04:06:16 32.32 Km\h Scotto C1 2010
15/05/2014 Show to everybody Pianura con Leo 61.44 Km 371 m 01:58:21 31.15 Km\h Scotto C1 2010
14/05/2014 Show to everybody Agilità a forio 62.51 Km 358 m 02:03:59 30.25 Km\h Scotto C1 2010
11/05/2014 Show to everybody GranFondo 100Km Ischia 102.57 Km 2093 m 03:40:09 27.95 Km\h Scotto C1 2010
11/05/2014 Show to everybody Andata e ritorno dalla gara 100km di Ischia 25.19 Km 337 m 00:56:26 26.78 Km\h Scotto C1 2010
10/05/2014 Show to everybody Giro con Gilberto Simoni 59.11 Km 1075 m 02:19:54 25.35 Km\h Scotto C1 2010
08/05/2014 Show to everybody Scarico 64.86 Km 653 m 02:21:58 27.41 Km\h Scotto C1 2010
07/05/2014 Show to everybody 200Km da solo 201.69 Km 818 m 06:14:59 32.27 Km\h Scotto C1 2010
05/05/2014 Show to everybody Scarico con Luca 60.88 Km 513 m 02:13:26 27.38 Km\h Scotto C1 2010
04/05/2014 Show to everybody Lungo :) 151.71 Km 1869 m 05:26:59 27.84 Km\h Scotto C1 2010
01/05/2014 Show to everybody Pianura e 2 giri con il team 120.94 Km 1676 m 04:17:30 28.18 Km\h Scotto C1 2010
30/04/2014 Show to everybody Pianura con giovanni e vento 63.88 Km 418 m 02:14:14 28.56 Km\h Scotto C1 2010
29/04/2014 Show to everybody Tardo pomeriggio da solo 72.15 Km 1063 m 02:37:07 27.55 Km\h Scotto C1 2010
27/04/2014 Show to everybody Uscita casual 103.12 Km 1223 m 03:42:53 27.76 Km\h Scotto C1 2010
25/04/2014 Show to everybody Prova 100km Ischia più salitelle 123.11 Km 2490 m 04:33:01 27.06 Km\h Scotto C1 2010
21/04/2014 Show to everybody Pasquetta 2014 70.99 Km 1000 m 02:29:42 28.45 Km\h Scotto C1 2010
20/04/2014 Show to everybody Pasqua 2014 101.62 Km 1711 m 03:50:17 26.48 Km\h Scotto C1 2010
18/04/2014 Show to everybody Pianura e ovviamente ancora vento.. 53.33 Km 463 m 01:49:16 29.29 Km\h Scotto C1 2010
17/04/2014 Show to everybody Pianura e salitelle con il vento 104.61 Km 1406 m 03:38:55 28.67 Km\h Scotto C1 2010
15/04/2014 Show to everybody Pianura e vento con Luca 63.69 Km 479 m 02:11:16 29.11 Km\h Scotto C1 2010
10/04/2014 Show to everybody Giro-pianura-giro 101.99 Km 1598 m 03:39:12 27.92 Km\h Scotto C1 2010
09/04/2014 Show to everybody Pianura a forio in relax con angelo 66.51 Km 379 m 02:26:33 27.23 Km\h Scotto C1 2010
08/04/2014 Show to everybody Oggi si che faceva caldo 116.81 Km 1438 m 03:59:57 29.21 Km\h Scotto C1 2010
06/04/2014 Show to everybody Pianura e due giri 115.98 Km 1535 m 04:13:11 27.49 Km\h Scotto C1 2010
03/04/2014 Show to everybody Pianura relax 87.24 Km 596 m 02:56:42 29.62 Km\h Scotto C1 2010
02/04/2014 Show to everybody Pianura e salite a forio 61.85 Km 861 m 02:11:10 28.29 Km\h Scotto C1 2010
01/04/2014 Show to everybody Salite e pianura 113.31 Km 1853 m 04:13:32 26.82 Km\h Scotto C1 2010
30/03/2014 Show to everybody Pianura e 2 giri: bella domenica! 112.12 Km 1614 m 03:54:55 28.64 Km\h Scotto C1 2010
28/03/2014 Show to everybody Salitelle e un po di pianura contro vento 71.78 Km 1250 m 02:37:49 27.29 Km\h Scotto C1 2010
26/03/2014 Show to everybody Cambio copertoni e pianura 82.56 Km 955 m 02:43:22 30.32 Km\h Scotto C1 2010
23/03/2014 Show to everybody Pioggia vento e nebbia con nicola e mimmo 64.29 Km 1103 m 02:24:56 26.61 Km\h Scotto C1 2010
20/03/2014 Show to everybody Pianura forio in compagnia 65.47 Km 513 m 02:15:14 29.05 Km\h Scotto C1 2010
19/03/2014 Show to everybody Due giri dell\`isola e pianura a forio da solo 101.86 Km 1762 m 03:45:25 27.11 Km\h Scotto C1 2010
17/03/2014 Show to everybody Pianura da solo a forio 61.3 Km 356 m 01:59:15 30.84 Km\h Scotto C1 2010
16/03/2014 Show to everybody Pianura giro e pianura 102.09 Km 1126 m 03:32:50 28.78 Km\h Scotto C1 2010
12/03/2014 Show to everybody Passeggiata 52.67 Km 599 m 01:49:27 28.88 Km\h Scotto C1 2010
11/03/2014 Show to everybody Pianura con vento 83.48 Km 442 m 02:41:54 30.94 Km\h Scotto C1 2010
09/03/2014 Show to everybody Pianura Forio-Casamicciola e giro con il team 105.41 Km 1627 m 03:30:45 30.01 Km\h Scotto C1 2010
06/03/2014 Show to everybody Climbing alone :P 121.04 Km 2466 m 04:22:26 27.67 Km\h Scotto C1 2010
03/03/2014 Show to everybody Sgambatina 65.21 Km 404 m 02:13:20 29.34 Km\h Scotto C1 2010
02/03/2014 Show to everybody GF Molisana 68.46 Km 734 m 01:53:30 36.19 Km\h Scotto C1 2010
26/02/2014 Show to everybody Sgambatina 54.61 Km 317 m 01:44:35 31.33 Km\h Scotto C1 2010
25/02/2014 Show to everybody Lunga uscita con Luca 142.09 Km 1767 m 04:51:46 29.22 Km\h Scotto C1 2010
23/02/2014 Show to everybody Pianura e giro ad alta velocità 122.9 Km 1607 m 03:55:25 31.32 Km\h Scotto C1 2010
18/02/2014 Show to everybody Vento ovunque con Luca 102.4 Km 1630 m 03:50:41 26.63 Km\h Scotto C1 2010
16/02/2014 Show to everybody Pozzuoli - Formia e ritorno 146.79 Km 424 m 04:17:55 34.15 Km\h Scotto C1 2010
14/02/2014 Show to everybody Prova mediofondo ischia 101.66 Km 1937 m 03:45:32 27.04 Km\h Scotto C1 2010
12/02/2014 Show to everybody Scarico con vento 45.19 Km 254 m 01:28:19 30.7 Km\h Scotto C1 2010
11/02/2014 Show to everybody Lungo pomeriggio con luca 111.82 Km 1554 m 03:53:38 28.72 Km\h Scotto C1 2010
07/02/2014 Show to everybody un pò con leo il resto con luca 106.39 Km 1311 m 03:42:05 28.74 Km\h Scotto C1 2010
05/02/2014 Show to everybody Da solo sotto la pioggia :) 63.62 Km 612 m 02:00:29 31.68 Km\h Scotto C1 2010
04/02/2014 Show to everybody Uscita veloce 71.38 Km 578 m 02:18:37 30.9 Km\h Scotto C1 2010
01/02/2014 Show to everybody 3 volte a fontana e un pò di pianura 102.99 Km 1802 m 03:43:32 27.64 Km\h Scotto C1 2010
29/01/2014 Show to everybody Pioggia gelida 71.02 Km 762 m 02:19:48 30.48 Km\h Scotto C1 2010
26/01/2014 Show to everybody Pianura cambi veloci e salita 92.62 Km 1047 m 03:04:43 30.09 Km\h Scotto C1 2010
25/01/2014 Show to everybody Super vento xD 64.32 Km 839 m 02:17:13 28.12 Km\h Scotto C1 2010
22/01/2014 Show to everybody Dopo 1 settimana di pioggia 92.14 Km 1005 m 03:03:02 30.2 Km\h Scotto C1 2010
16/01/2014 Show to everybody Pomeriggio realx 51.59 Km 265 m 01:42:48 30.11 Km\h Scotto C1 2010
15/01/2014 Show to everybody Primo lungo dell\`anno 119.99 Km 1428 m 03:53:49 30.79 Km\h Scotto C1 2010
12/01/2014 Show to everybody Uscito in ritardo xD 70.84 Km 1047 m 02:40:06 26.55 Km\h Scotto C1 2010
10/01/2014 Show to everybody 2 giri dell\`isola ed epomeo con leo 101.97 Km 2059 m 03:52:04 26.36 Km\h Scotto C1 2010
07/01/2014 Show to everybody 2 Giri dell\`isola a tutta con Luca 80.88 Km 1489 m 03:04:31 26.3 Km\h Scotto C1 2010
06/01/2014 Show to everybody Pianura con il team e giro con luca e leo 100.21 Km 1011 m 03:24:01 29.47 Km\h Scotto C1 2010
03/01/2014 Show to everybody Pianura e giro con ernesto e leo 81.63 Km 971 m 02:47:02 29.32 Km\h Scotto C1 2010
01/01/2014 Show to everybody Primo dell\`anno 41.06 Km 509 m 01:27:03 28.3 Km\h Scotto C1 2010
31/12/2013 Show to everybody Fine anno con Ernesto 66.31 Km 1391 m 02:38:11 25.15 Km\h Scotto C1 2010
29/12/2013 Show to everybody Domenica con il team e giro con ernesto 100.73 Km 1089 m 03:16:36 30.74 Km\h Scotto C1 2010
25/12/2013 Show to everybody Natale da solo 60.99 Km 945 m 02:13:44 27.36 Km\h Scotto C1 2010
24/12/2013 Show to everybody Vigilia di natale con francesco 61.05 Km 451 m 02:08:47 28.44 Km\h Scotto C1 2010
22/12/2013 Show to everybody Uscita relax e corsa di beneficenza 80.79 Km 1316 m 03:03:59 26.35 Km\h Scotto C1 2010
19/12/2013 Show to everybody Pianura a tutta con michele 66.51 Km 300 m 01:56:12 34.34 Km\h Scotto C1 2010
18/12/2013 Show to everybody Gambe che non vanno, pensieri che ti frenano 93.22 Km 1522 m 03:25:16 27.25 Km\h Scotto C1 2010
17/12/2013 Show to everybody pianura a tutta 87.96 Km 424 m 02:34:43 34.11 Km\h Scotto C1 2010
15/12/2013 Show to everybody Pianura sotto la pioggia 102.07 Km 401 m 03:06:04 32.91 Km\h Scotto C1 2010
13/12/2013 Show to everybody Pianura alternata a salite 84.5 Km 976 m 02:47:45 30.23 Km\h Scotto C1 2010
11/12/2013 Show to everybody Only climb alone 92.21 Km 1772 m 03:29:23 26.42 Km\h Scotto C1 2010
10/12/2013 Show to everybody Pianura casamicciola-forio con il team 73.26 Km 807 m 02:25:12 30.27 Km\h Scotto C1 2010
08/12/2013 Show to everybody Pianura in compagnia 82.51 Km 461 m 02:35:46 31.78 Km\h Scotto C1 2010
05/12/2013 Show to everybody 20° Compleanno 81.49 Km 820 m 02:48:09 29.08 Km\h Scotto C1 2010
04/12/2013 Show to everybody 2 Giri dell\`isola e pianura da solo :) 104.51 Km 1476 m 03:45:46 27.78 Km\h Scotto C1 2010
29/11/2013 Show to everybody Ancora foto e video per la 100km di ischia 101.61 Km 1592 m 03:44:18 27.18 Km\h Scotto C1 2010
26/11/2013 Show to everybody Pianura + foto e video per la 100km ischia 93.89 Km 713 m 03:03:03 30.78 Km\h Scotto C1 2010
21/11/2013 Show to everybody A tutta da solo 102.4 Km 1131 m 03:15:29 31.43 Km\h Scotto C1 2010
19/11/2013 Show to everybody Temporale 24.38 Km 269 m 00:52:33 27.84 Km\h Scotto C1 2010
17/11/2013 Show to everybody Pozzuoli - Baia Domizia 2013 132.27 Km 308 m 04:00:48 32.96 Km\h Scotto C1 2010
14/11/2013 Show to everybody Super allenamento con michele 102.58 Km 521 m 02:58:59 34.39 Km\h Scotto C1 2010
12/11/2013 Show to everybody Pianura a tutta :D 122.76 Km 944 m 03:55:14 31.31 Km\h Scotto C1 2010
10/11/2013 Show to everybody Pianura caduta di massa e giro dell\`isola 113.23 Km 1154 m 03:45:47 30.09 Km\h Scotto C1 2010
07/11/2013 Show to everybody Fisicamente ok :) 111 Km 405 m 03:25:08 32.47 Km\h Scotto C1 2010
05/11/2013 Show to everybody Vento, vento e vento 104.59 Km 943 m 03:38:38 28.7 Km\h Scotto C1 2010
03/11/2013 Show to everybody Passeggiata domenicale 102.75 Km 1277 m 03:48:24 26.99 Km\h Scotto C1 2010
31/10/2013 Show to everybody 3 giri dell\`isola da solo 106.64 Km 2007 m 03:49:50 27.84 Km\h Scotto C1 2010
29/10/2013 Show to everybody Gambe che vanno :) 122.12 Km 1463 m 03:53:36 31.37 Km\h Scotto C1 2010
27/10/2013 Show to everybody il mio garmin era morto questo è di luca 100.1 Km 1665 m 03:36:26 27.75 Km\h Scotto C1 2010
26/10/2013 Show to everybody Sgambata di sabato mattina da solo 73.02 Km 1225 m 02:39:12 27.52 Km\h Scotto C1 2010
24/10/2013 Show to everybody Sempre avanti, pianura + giro 112.79 Km 1209 m 03:56:09 28.66 Km\h Scotto C1 2010
22/10/2013 Show to everybody Relax :) 101.56 Km 433 m 03:13:29 31.5 Km\h Scotto C1 2010
20/10/2013 Show to everybody Oggi non va 85.3 Km 900 m 02:46:48 30.68 Km\h Scotto C1 2010
19/10/2013 Show to everybody Le gambe macinano, da solo 82.2 Km 1016 m 02:35:40 31.68 Km\h Scotto C1 2010
17/10/2013 Show to everybody Che giornata stupenda!! 82.52 Km 1029 m 02:44:54 30.03 Km\h Scotto C1 2010
15/10/2013 Show to everybody Pianura a tutta 91.61 Km 444 m 02:45:28 33.22 Km\h Scotto C1 2010
14/10/2013 Show to everybody Giretto 71.01 Km 575 m 02:25:05 29.37 Km\h Scotto C1 2010
13/10/2013 Show to everybody Avellino 2013 - Lago Laceno 90.74 Km 1636 m 03:45:42 24.12 Km\h Scotto C1 2010
10/10/2013 Show to everybody Pianura, caduta di mario e scarico 87.56 Km 621 m 02:40:55 32.65 Km\h Scotto C1 2010
09/10/2013 Show to everybody Salite :) e finalmente nemmeno un problema 118.67 Km 1991 m 04:26:40 26.7 Km\h Scotto C1 2010
07/10/2013 Show to everybody Oggi non ero in condizione 55.65 Km 854 m 01:57:12 28.49 Km\h Scotto C1 2010
06/10/2013 Show to everybody Domenica pomeriggio da solo 82.53 Km 1486 m 02:58:05 27.8 Km\h Scotto C1 2010
04/10/2013 Show to everybody Tirata e scarico 84.82 Km 821 m 02:53:48 29.28 Km\h Scotto C1 2010
03/10/2013 Show to everybody Ancora pianura a tutta 106.82 Km 466 m 03:08:58 33.92 Km\h Scotto C1 2010
01/10/2013 Show to everybody Pianura a tutta con fuga 111.39 Km 601 m 03:26:21 32.39 Km\h Scotto C1 2010
30/09/2013 Show to everybody scarico con julio e leo 73.56 Km 412 m 02:34:12 28.62 Km\h Scotto C1 2010
29/09/2013 Show to everybody Con il team a tutta!!! 113.92 Km 1708 m 03:53:31 29.27 Km\h Scotto C1 2010
27/09/2013 Show to everybody Strappetti a tutta 71.19 Km 836 m 02:24:48 29.5 Km\h Scotto C1 2010
26/09/2013 Show to everybody Un bel pomeriggio a tutta 126.91 Km 1285 m 04:08:09 30.69 Km\h Scotto C1 2010
24/09/2013 Show to everybody Passeggiata con Filippo 71.89 Km 1179 m 03:20:27 21.52 Km\h Scotto C1 2010
23/09/2013 Show to everybody Altro che scarico post gara 105.57 Km 847 m 03:21:58 31.36 Km\h Scotto C1 2010
22/09/2013 Show to everybody Riscaldamento + Cronomentro Forio 2013 21.05 Km 172 m 00:42:36 29.65 Km\h Scotto C1 2010
21/09/2013 Show to everybody Sgambata pre cronometro 62.32 Km 776 m 02:23:30 26.06 Km\h Scotto C1 2010
20/09/2013 Show to everybody Con gli amici 81.98 Km 1116 m 03:10:57 25.76 Km\h Scotto C1 2010
19/09/2013 Show to everybody Cazzeggio 95.56 Km 867 m 03:15:53 29.27 Km\h Scotto C1 2010
18/09/2013 Show to everybody Prova TT su lunga distanza 109.3 Km 592 m 03:17:29 33.21 Km\h Scotto C1 2010
17/09/2013 Show to everybody Prova ITT 72.98 Km 521 m 02:19:54 31.3 Km\h Scotto C1 2010
16/09/2013 Show to everybody Scarico con luca 63.37 Km 395 m 02:21:17 26.91 Km\h Scotto C1 2010
15/09/2013 Show to everybody GF Cammino di Francesco 88.12 Km 1020 m 02:57:10 29.84 Km\h Scotto C1 2010
13/09/2013 Show to everybody Finalmente scarico 71.34 Km 501 m 02:34:21 27.73 Km\h Scotto C1 2010
11/09/2013 Show to everybody Mal di gambe 118.85 Km 2023 m 04:27:13 26.69 Km\h Scotto C1 2010
10/09/2013 Show to everybody Prova cronometro e scarico 108.16 Km 786 m 03:26:23 31.45 Km\h Scotto C1 2010
08/09/2013 Show to everybody Pianura e giro 116.19 Km 1103 m 04:03:15 28.66 Km\h Scotto C1 2010
07/09/2013 Show to everybody Passeggiata con Ernesto 64.29 Km 1123 m 02:30:42 25.59 Km\h Scotto C1 2010
06/09/2013 Show to everybody Il dietro michele :P 102.55 Km 385 m 02:59:07 34.35 Km\h Scotto C1 2010
04/09/2013 Show to everybody 2 giri dell\`isola di primo mattino 67.93 Km 1283 m 02:30:54 27.01 Km\h Scotto C1 2010
03/09/2013 Show to everybody Pianura a 41 di media con il team.. 101.83 Km 470 m 02:57:34 34.41 Km\h Scotto C1 2010
01/09/2013 Show to everybody Super domenica!! 141.94 Km 1540 m 04:42:02 30.2 Km\h Scotto C1 2010
30/08/2013 Show to everybody Pianura a tutta con il team 72.71 Km 365 m 02:05:33 34.75 Km\h Scotto C1 2010
29/08/2013 Show to everybody Pomeriggio di fine agosto con francesco 88.99 Km 1123 m 03:17:11 27.08 Km\h Scotto C1 2010
28/08/2013 Show to everybody pianura e giro 133.16 Km 1250 m 04:37:18 28.81 Km\h Scotto C1 2010
27/08/2013 Show to everybody salite con quel fracito di frenk 61.55 Km 916 m 02:20:54 26.21 Km\h Scotto C1 2010
25/08/2013 Show to everybody Pianura a manetta, giro da solo e pioggia 108.71 Km 995 m 03:25:23 31.76 Km\h Scotto C1 2010
23/08/2013 Show to everybody pianura col sonno 85.19 Km 416 m 02:38:41 32.21 Km\h Scotto C1 2010
22/08/2013 Show to everybody pianura casamicciola-forio e giro 105.44 Km 1308 m 03:49:59 27.51 Km\h Scotto C1 2010
21/08/2013 Show to everybody cercando di fare pianura decentemente .. 73.8 Km 541 m 02:40:34 27.58 Km\h Scotto C1 2010
20/08/2013 Show to everybody pianura realx e 3 scatti con luca 102.9 Km 536 m 03:30:29 29.33 Km\h Scotto C1 2010
18/08/2013 Show to everybody Pianura a tutta e 2 giri dell\`isola 121.96 Km 1587 m 04:05:34 29.8 Km\h Scotto C1 2010
17/08/2013 Show to everybody relax con ernesto 73.15 Km 1141 m 02:59:30 24.45 Km\h Scotto C1 2010
16/08/2013 Show to everybody Super allenamento con Ernesto 67.68 Km 1043 m 02:23:57 28.21 Km\h Scotto C1 2010
15/08/2013 Show to everybody Ferragosto 90.94 Km 990 m 03:20:51 27.17 Km\h Scotto C1 2010
14/08/2013 Show to everybody Salite con Ernesto e Francesco 83.13 Km 1668 m 03:23:08 24.56 Km\h Scotto C1 2010
13/08/2013 Show to everybody Pianura e giro con ernesto 104.4 Km 1107 m 03:40:52 28.36 Km\h Scotto C1 2010
11/08/2013 Show to everybody Pianura a tutta e giro dell\`isola in compagnia in relax 123.49 Km 1092 m 03:58:31 31.06 Km\h Scotto C1 2010
09/08/2013 Show to everybody 3 Anni di bici oggi .. 102.85 Km 1005 m 03:31:26 29.19 Km\h Scotto C1 2010
07/08/2013 Show to everybody Si ritorna in sella dopo la caduta 43.74 Km 810 m 01:50:32 23.74 Km\h Scotto C1 2010
28/07/2013 Show to everybody GF Matese con caduta 47 Km 1240 m 01:47:06 26.33 Km\h Scotto C1 2010
26/07/2013 Show to everybody Pianura = sauna 69.26 Km 344 m 02:18:02 30.11 Km\h Scotto C1 2010
25/07/2013 Show to everybody pianura e finalmente ho ripreso la mia bici 84.85 Km 540 m 02:50:42 29.82 Km\h Scotto C1 2010
23/07/2013 Show to everybody Relax in pianura 82.81 Km 470 m 02:49:46 29.27 Km\h Scotto C1 2010
21/07/2013 Show to everybody Giornata no per le mie gambe e cuore 112.72 Km 1896 m 04:18:00 26.21 Km\h Scotto C1 2010
20/07/2013 Show to everybody Con Ernesto 83.96 Km 1153 m 03:02:41 27.58 Km\h Scotto C1 2010
18/07/2013 Show to everybody Salite in velocità 131.65 Km 1797 m 04:42:15 27.99 Km\h Scotto C1 2010
16/07/2013 Show to everybody Pianura a tutta e passeggiata con luca 113.45 Km 1433 m 04:11:36 27.05 Km\h Scotto C1 2010
14/07/2013 Show to everybody Salite con tutti gli amici :) 126.66 Km 2185 m 05:02:37 25.11 Km\h Scotto C1 2010
11/07/2013 Show to everybody Pianura, maronti, epomeo, sorgeto .. 108.55 Km 1394 m 04:17:07 25.33 Km\h Scotto C1 2010
10/07/2013 Show to everybody Pianura e salita a fontana con luca 86.75 Km 935 m 03:04:53 28.15 Km\h Scotto C1 2010
09/07/2013 Show to everybody pianura con francesco e luca e giro in relax 102.88 Km 996 m 03:45:18 27.4 Km\h Scotto C1 2010
07/07/2013 Show to everybody GF Ciclolonga degli Altipiani Maggiori d\`Abruzzo 132.6 Km 1940 m 04:29:43 29.5 Km\h Scotto C1 2010
04/07/2013 Show to everybody Pre-gara in compagnia 102.68 Km 1479 m 03:38:47 28.16 Km\h Scotto C1 2010
02/07/2013 Show to everybody pianura e giro con leo luca e francesco 102.52 Km 1052 m 03:35:23 28.56 Km\h Scotto C1 2010
30/06/2013 Show to everybody Uscita prima dell\`esame .. 109.33 Km 1583 m 04:05:47 26.69 Km\h Scotto C1 2010
27/06/2013 Show to everybody Pianura e giro mattutino 117.98 Km 1086 m 04:03:46 29.04 Km\h Scotto C1 2010
25/06/2013 Show to everybody Lunga passeggiata con francesco 103.34 Km 1075 m 04:01:33 25.67 Km\h Scotto C1 2010
23/06/2013 Show to everybody Pianura sotto la pioggia e 2 giri dell\`isola sotto il sole 133.81 Km 1534 m 04:27:50 29.98 Km\h Scotto C1 2010
21/06/2013 Show to everybody Bella uscita con leo 106.05 Km 1330 m 03:47:45 27.94 Km\h Scotto C1 2010
18/06/2013 Show to everybody La temperatura parla da sola! 91.31 Km 1177 m 03:21:48 27.15 Km\h Scotto C1 2010
16/06/2013 Show to everybody Domenica distruttiva .. 3 giri dell\`isola.. 151.68 Km 2001 m 05:14:33 28.93 Km\h Scotto C1 2010
13/06/2013 Show to everybody Pianura e salite alternate 113.65 Km 1399 m 03:51:08 29.5 Km\h Scotto C1 2010
11/06/2013 Show to everybody Saliteeeee 110.75 Km 2024 m 04:30:29 24.57 Km\h Scotto C1 2010
09/06/2013 Show to everybody 3 Giri dell\`isola e pianura a tutta 152 Km 2015 m 05:11:02 29.32 Km\h Scotto C1 2010
06/06/2013 Show to everybody Uscita velocissima 63.52 Km 317 m 01:52:12 33.97 Km\h Scotto C1 2010
04/06/2013 Show to everybody Quando le gambe girano 112.89 Km 726 m 03:30:51 32.12 Km\h Scotto C1 2010
02/06/2013 Show to everybody Pianura e 2 giri dell\`isola 177.55 Km 1853 m 06:04:50 29.2 Km\h Scotto C1 2010
30/05/2013 Show to everybody Salite, pianura e fuori soglia 115 Km 1729 m 04:03:41 28.31 Km\h Scotto C1 2010
28/05/2013 Show to everybody La solita uscita per andare da michele 72.04 Km 749 m 02:35:48 27.74 Km\h Scotto C1 2010
26/05/2013 Show to everybody vento pioggia grandine freddo e santa maria al monte xD 123.75 Km 2012 m 04:40:49 26.44 Km\h Scotto C1 2010
23/05/2013 Show to everybody Vento forte con julio e francesco 90.16 Km 616 m 02:56:34 30.64 Km\h Scotto C1 2010
21/05/2013 Show to everybody Pianura sotto la pioggia con francesco 105.63 Km 367 m 03:13:19 32.79 Km\h Scotto C1 2010
19/05/2013 Show to everybody Nove Colli 2013 - Lungo 206.75 Km 3728 m 07:35:58 27.21 Km\h Scotto C1 2010
16/05/2013 Show to everybody Solo pianura con i franceschi e maurizio a ziii :) 120.87 Km 523 m 03:45:28 32.17 Km\h Scotto C1 2010
14/05/2013 Show to everybody Pianura con gianni e francesco e 3 ore da michele 81.48 Km 786 m 02:58:14 27.43 Km\h Scotto C1 2010
12/05/2013 Show to everybody Come perdere tempo prezioso 178.12 Km 1371 m 05:39:36 31.47 Km\h Scotto C1 2010
10/05/2013 Show to everybody Pianura e salite a tutta 103.15 Km 1095 m 03:15:33 31.65 Km\h Scotto C1 2010
09/05/2013 Show to everybody Scarico... 73.32 Km 666 m 02:35:34 28.28 Km\h Scotto C1 2010
08/05/2013 Show to everybody Stachezza ... 113.08 Km 1449 m 04:08:08 27.34 Km\h Scotto C1 2010
07/05/2013 Show to everybody Tanti scatti e volate 152.83 Km 1321 m 04:52:29 31.35 Km\h Scotto C1 2010
05/05/2013 Show to everybody Giro d\`italia 2013 a ischia 122.17 Km 1504 m 04:41:26 26.05 Km\h Scotto C1 2010
03/05/2013 Show to everybody Avanti e dietro... 105.44 Km 987 m 03:50:20 27.47 Km\h Scotto C1 2010
02/05/2013 Show to everybody Scarico con francesco 61.24 Km 464 m 02:12:52 27.65 Km\h Scotto C1 2010
01/05/2013 Show to everybody Sul filo dei 40orari e prima volta 200Km 201.69 Km 1235 m 06:22:05 31.67 Km\h Scotto C1 2010
30/04/2013 Show to everybody Scarico ma deve succedere sempre qualcosa 61.88 Km 680 m 02:28:22 25.02 Km\h Scotto C1 2010
29/04/2013 Show to everybody Tempo di record per giro dell\`isola 123.23 Km 1810 m 04:25:16 27.87 Km\h Scotto C1 2010
28/04/2013 Show to everybody Potevo fare di più ma vabbè 171.73 Km 1770 m 06:08:31 27.96 Km\h Scotto C1 2010
26/04/2013 Show to everybody Ancora salite da solo 102.25 Km 1552 m 03:52:40 26.37 Km\h Scotto C1 2010
25/04/2013 Show to everybody Climbing 136.64 Km 2703 m 05:32:33 24.65 Km\h Scotto C1 2010
23/04/2013 Show to everybody Uscita stramba 106.64 Km 1771 m 04:26:08 24.04 Km\h Scotto C1 2010
21/04/2013 Show to everybody Nuovo super record 182.55 Km 1547 m 05:47:42 31.5 Km\h Scotto C1 2010
19/04/2013 Show to everybody Giro + 2 volte a fontana da solo 83.12 Km 1644 m 03:08:03 26.52 Km\h Scotto C1 2010
18/04/2013 Show to everybody Solo pianura!! 132.63 Km 637 m 04:10:59 31.71 Km\h Scotto C1 2010
16/04/2013 Show to everybody Pianura Casamicciola - Forio 110.71 Km 785 m 03:47:44 29.17 Km\h Scotto C1 2010
15/04/2013 Show to everybody Uscita casual 100.76 Km 1102 m 03:51:38 26.1 Km\h Scotto C1 2010
14/04/2013 Show to everybody Super record 164.05 Km 1628 m 05:35:40 29.32 Km\h Scotto C1 2010
11/04/2013 Show to everybody Cazzegiando con francesco,leo e giovanni 132.16 Km 1157 m 04:55:53 26.8 Km\h Scotto C1 2010
09/04/2013 Show to everybody Pianura stramba 102.85 Km 702 m 03:43:49 27.57 Km\h Scotto C1 2010
08/04/2013 Show to everybody Super salita e pianura da solo 90.57 Km 1200 m 03:22:23 26.85 Km\h Scotto C1 2010
07/04/2013 Show to everybody Domenica lunghissima 141.34 Km 1965 m 05:11:17 27.24 Km\h Scotto C1 2010
05/04/2013 Show to everybody Pianura Forio e casamicciola da solo 101.05 Km 828 m 03:30:18 28.83 Km\h Scotto C1 2010
04/04/2013 Show to everybody Doveva essere recupero ... 80.27 Km 1214 m 03:19:25 24.15 Km\h Scotto C1 2010
03/04/2013 Show to everybody Tanti muri con Francesco 101.83 Km 1622 m 04:05:26 24.89 Km\h Scotto C1 2010
01/04/2013 Show to everybody Pasquetta con Ernesto e Michelino 103.08 Km 1262 m 03:56:42 26.13 Km\h Scotto C1 2010
31/03/2013 Show to everybody La Pasqua delle disavventure! 65.19 Km 816 m 02:37:59 24.76 Km\h Scotto C1 2010
30/03/2013 Show to everybody Relax con Leonardo 75.22 Km 690 m 02:45:04 27.34 Km\h Scotto C1 2010
28/03/2013 Show to everybody Passeggiata con francesco 62.55 Km 604 m 02:30:51 24.88 Km\h Scotto C1 2010
27/03/2013 Show to everybody Scarico con francesco 66.84 Km 398 m 02:21:33 28.33 Km\h Scotto C1 2010
26/03/2013 Show to everybody Recupero 71.24 Km 621 m 02:33:06 27.92 Km\h Scotto C1 2010
24/03/2013 Show to everybody Raffiche fortissime ma si pedala forte ugualmente 135.26 Km 1646 m 04:43:43 28.6 Km\h Scotto C1 2010
22/03/2013 Show to everybody Pianura Casamicciola - Forio 111.55 Km 1146 m 04:04:00 27.43 Km\h Scotto C1 2010
21/03/2013 Show to everybody Solo vento e raffiche 105.59 Km 1724 m 04:06:19 25.72 Km\h Scotto C1 2010
19/03/2013 Show to everybody Post granfondo 83.93 Km 943 m 03:06:59 26.93 Km\h Scotto C1 2010
17/03/2013 Show to everybody GF Amalfi 120.62 Km 2529 m 04:20:00 27.83 Km\h Scotto C1 2010
12/03/2013 Show to everybody Vento, pioggia e grandine 79.39 Km 942 m 02:47:05 28.51 Km\h Scotto C1 2010
10/03/2013 Show to everybody GF Torri e Castelli di Carovigno 108.95 Km 1059 m 02:59:56 36.33 Km\h Scotto C1 2010
08/03/2013 Show to everybody Giro con nebbia 59.52 Km 1096 m 02:19:59 25.51 Km\h Scotto C1 2010
05/03/2013 Show to everybody Ginocchio andato 93.35 Km 1272 m 03:35:24 26 Km\h Scotto C1 2010
03/03/2013 Show to everybody Gran Fondo dei Laghi 2013 140.28 Km 2502 m 03:58:08 35.34 Km\h Scotto C1 2010
28/02/2013 Show to everybody Pianura giro e salite a forio 102.66 Km 1186 m 03:41:31 27.81 Km\h Scotto C1 2010
27/02/2013 Show to everybody Scarico di mattina con francesco 73.41 Km 388 m 02:29:59 29.37 Km\h Scotto C1 2010
26/02/2013 Show to everybody Pianura in relax 91.88 Km 905 m 03:16:04 28.12 Km\h Scotto C1 2010
24/02/2013 Show to everybody Preparazione gran fondo dei laghi 101.18 Km 2206 m 03:55:02 25.83 Km\h Scotto C1 2010
21/02/2013 Show to everybody Con antonio,mimmo e francesco 80.69 Km 723 m 02:46:46 29.03 Km\h Scotto C1 2010
19/02/2013 Show to everybody Pomeriggio di pianura 110.23 Km 523 m 03:23:17 32.53 Km\h Scotto C1 2010
17/02/2013 Show to everybody Dovevo fare la gf di sorrento 122.02 Km 1103 m 03:58:48 30.66 Km\h Scotto C1 2010
14/02/2013 Show to everybody Preparazione giro della costiera 84.33 Km 1002 m 03:02:45 27.69 Km\h Scotto C1 2010
10/02/2013 Show to everybody Tutto contro di me 64.54 Km 914 m 02:27:56 26.18 Km\h Scotto C1 2010
08/02/2013 Show to everybody Relax 66.66 Km 789 m 02:32:22 26.25 Km\h Scotto C1 2010
05/02/2013 Show to everybody Pianura e salite 92.52 Km 966 m 03:18:49 27.92 Km\h Scotto C1 2010
04/02/2013 Show to everybody Funerale peppe 28.95 Km 468 m 01:05:16 26.62 Km\h Scotto C1 2010
03/02/2013 Show to everybody Pianura in tranquillità e in compagnia 71.01 Km 1100 m 02:26:50 29.02 Km\h Scotto C1 2010
31/01/2013 Show to everybody activity_268044493 139.02 Km 991 m 04:13:55 32.85 Km\h Scotto C1 2010
29/01/2013 Show to everybody activity_267390937 82.3 Km 846 m 02:46:51 29.6 Km\h Scotto C1 2010
27/01/2013 Show to everybody Pozzuoli 137.82 Km 528 m 04:26:09 31.07 Km\h Scotto C1 2010
24/01/2013 Show to everybody activity_265537035 77.83 Km 756 m 02:41:09 28.98 Km\h Scotto C1 2010
22/01/2013 Show to everybody activity_264901612 66.05 Km 814 m 02:16:10 29.11 Km\h Scotto C1 2010
20/01/2013 Show to everybody activity_264022590 66.23 Km 167 m 02:00:10 33.07 Km\h Scotto C1 2010
17/01/2013 Show to everybody activity_263041509 100.52 Km 490 m 03:11:12 31.55 Km\h Scotto C1 2010
15/01/2013 Show to everybody activity_262414008 108.29 Km 845 m 03:24:36 31.76 Km\h Scotto C1 2010
13/01/2013 Show to everybody activity_261486763 117.78 Km 959 m 03:41:19 31.93 Km\h Scotto C1 2010
10/01/2013 Show to everybody activity_260405322 51.52 Km 297 m 01:52:31 27.48 Km\h Scotto C1 2010
08/01/2013 Show to everybody activity_259667319 106.42 Km 805 m 03:14:56 32.76 Km\h Scotto C1 2010
06/01/2013 Show to everybody activity_258642283 101.1 Km 967 m 03:33:07 28.46 Km\h Scotto C1 2010
04/01/2013 Show to everybody activity_257833827 83.47 Km 778 m 02:36:29 32 Km\h Scotto C1 2010
03/01/2013 Show to everybody activity_257404239 81.91 Km 1197 m 03:08:49 26.03 Km\h Scotto C1 2010
01/01/2013 Show to everybody primo_dell_anno 96.62 Km 1609 m 03:39:01 26.47 Km\h Scotto C1 2010
31/12/2012 Show to everybody ultima_uscita_e_ultimo_giro_dell 59.44 Km 1432 m 02:24:09 24.74 Km\h Scotto C1 2010
30/12/2012 Show to everybody pinura_manifestazione_giro_d_ita 81.35 Km 1577 m 03:06:52 26.12 Km\h Scotto C1 2010
29/12/2012 Show to everybody sabato_mattina_con_ernesto 68.98 Km 1280 m 02:23:37 28.82 Km\h Scotto C1 2010
28/12/2012 Show to everybody pianura_con_ernesto_e_leo 84.43 Km 1391 m 03:05:11 27.36 Km\h Scotto C1 2010
26/12/2012 Show to everybody dopo_natale__ 113.95 Km 1680 m 04:00:05 28.48 Km\h Scotto C1 2010
24/12/2012 Show to everybody vigilia_di_natale 54.21 Km 896 m 02:00:28 27 Km\h Scotto C1 2010
18/12/2012 Show to everybody pianura_e_salita_con_vento 73.7 Km 898 m 02:29:44 29.53 Km\h Scotto C1 2010
16/12/2012 Show to everybody pianura_con_michele_e_mimmo_e_gi 112.18 Km 1861 m 04:11:43 26.74 Km\h Scotto C1 2010
13/12/2012 Show to everybody pianura_casamicciola 79.22 Km 704 m 02:39:19 29.84 Km\h Scotto C1 2010
11/12/2012 Show to everybody pianura_con_michele 84.8 Km 834 m 02:44:55 30.85 Km\h Scotto C1 2010
09/12/2012 Show to everybody gelo_e_vento 99.03 Km 1573 m 04:05:22 24.22 Km\h Scotto C1 2010
05/12/2012 Show to everybody pianura_forio_con_pioggia 43.23 Km 599 m 01:34:22 27.49 Km\h Scotto C1 2010
02/12/2012 Show to everybody pianura_da_solo_con_temporale 57.13 Km 624 m 02:00:43 28.4 Km\h Scotto C1 2010
29/11/2012 Show to everybody pianura_in_relax_con_francesco_e 50.75 Km 490 m 01:51:31 27.3 Km\h Scotto C1 2010
25/11/2012 Show to everybody tanta_pianura_e_giro_con_video 120.03 Km 1614 m 04:24:18 27.25 Km\h Scotto C1 2010
23/11/2012 Show to everybody pianura_casamicciola_forio_e_sal 60.98 Km 1017 m 02:16:11 26.87 Km\h Scotto C1 2010
21/11/2012 Show to everybody pianura_casamicciola_forio_con_j 68.69 Km 921 m 02:28:14 27.8 Km\h Scotto C1 2010
18/11/2012 Show to everybody avellino___benevento___avellino 74.78 Km 1427 m 02:37:39 28.46 Km\h Scotto C1 2010
15/11/2012 Show to everybody altra_giornataccia__ma_questa_sa 94.52 Km 1280 m 03:26:04 27.52 Km\h Scotto C1 2010
13/11/2012 Show to everybody sfogare_la_rabbia 91.24 Km 1454 m 03:00:50 30.27 Km\h Scotto C1 2010
11/11/2012 Show to everybody vento_fortissimo_con_un_bel_grup 105.19 Km 1469 m 03:56:34 26.68 Km\h Scotto C1 2010
08/11/2012 Show to everybody pianura_forio_casamicciola_forio 80.15 Km 1195 m 02:57:22 27.11 Km\h Scotto C1 2010
06/11/2012 Show to everybody giro_alternativo 72.55 Km 1167 m 02:46:58 26.07 Km\h Scotto C1 2010
04/11/2012 Show to everybody vento_e_pioggia 90.57 Km 834 m 03:09:09 28.73 Km\h Scotto C1 2010
02/11/2012 Show to everybody con_michele_e_leonardo_pianura_e 102.75 Km 1325 m 03:58:58 25.8 Km\h Scotto C1 2010
30/10/2012 Show to everybody pianura_casamicciola_e_forio1 83.42 Km 1345 m 02:55:42 28.49 Km\h Scotto C1 2010
28/10/2012 Show to everybody giornata_epica_con_michele 106.85 Km 1167 m 03:54:20 27.36 Km\h Scotto C1 2010
25/10/2012 Show to everybody passeggiata 70.46 Km 1514 m 02:54:56 24.17 Km\h Scotto C1 2010
23/10/2012 Show to everybody tanta_pianura_tirata_da_solo 84.22 Km 1382 m 02:52:19 29.33 Km\h Scotto C1 2010
21/10/2012 Show to everybody pianura_e_giro 107.17 Km 1422 m 03:51:32 27.77 Km\h Scotto C1 2010
18/10/2012 Show to everybody pianura_casamicciola_e_forio 84.66 Km 1302 m 02:57:30 28.62 Km\h Scotto C1 2010
16/10/2012 Show to everybody solitaria_con_il_52_con_vento_fo 58.83 Km 1184 m 02:04:41 28.31 Km\h Scotto C1 2010
14/10/2012 Show to everybody pianura_e_giro 110.34 Km 1142 m 03:49:10 28.89 Km\h Scotto C1 2010
11/10/2012 Show to everybody pianura_e_qualche_giretto_con_le 84.6 Km 1244 m 03:00:26 28.13 Km\h Scotto C1 2010
09/10/2012 Show to everybody percorsi_alternativi_con_leonard 69.97 Km 1057 m 02:40:38 26.13 Km\h Scotto C1 2010
07/10/2012 Show to everybody che_bella_giornata 129.43 Km 1189 m 04:31:37 28.59 Km\h Scotto C1 2010
04/10/2012 Show to everybody con_leonardo_emilio_e_francesco 73.21 Km 1003 m 02:36:42 28.03 Km\h Scotto C1 2010
02/10/2012 Show to everybody pomeriggio_lungo 101.54 Km 1265 m 03:20:29 30.39 Km\h Scotto C1 2010
30/09/2012 Show to everybody pianura_e_giro_sotto_la_pioggia 109.19 Km 1670 m 04:11:18 26.07 Km\h Scotto C1 2010
27/09/2012 Show to everybody con_leonardo_e_massimo 75.16 Km 885 m 02:28:10 30.44 Km\h Scotto C1 2010
25/09/2012 Show to everybody pianure_e_giro_con_enzo_e_antoni 89.7 Km 1918 m 07:31:51 11.91 Km\h Scotto C1 2010
23/09/2012 Show to everybody 2__cronometro_forio 19.63 Km 300 m 00:32:49 35.88 Km\h Scotto C1 2010
22/09/2012 Show to everybody ruote_fulcrum_racing_quattro 27.24 Km 586 m 01:01:45 26.46 Km\h Scotto C1 2010
20/09/2012 Show to everybody pianura_con_leonardo_e_massimo 58.35 Km 955 m 02:02:27 28.59 Km\h Scotto C1 2010
18/09/2012 Show to everybody prova_cronometro_forio 70.05 Km 872 m 02:24:25 29.1 Km\h Scotto C1 2010
16/09/2012 Show to everybody pedalata_ecologica_2012 105.28 Km 2072 m 05:10:27 20.35 Km\h Scotto C1 2010
11/09/2012 Show to everybody pianura_da_solo 50.36 Km 476 m 01:41:17 29.83 Km\h Scotto C1 2010
09/09/2012 Show to everybody pianura_velocissima_e_giro_dell_ 98.53 Km 1575 m 03:37:38 27.16 Km\h Scotto C1 2010
07/09/2012 Show to everybody pianura_a_tutta_e_poi_giro 110.33 Km 1766 m 04:16:04 25.85 Km\h Scotto C1 2010
06/09/2012 Show to everybody con_emilio 72.45 Km 811 m 02:26:46 29.62 Km\h Scotto C1 2010
02/09/2012 Show to everybody destruction 118.87 Km 1488 m 04:08:30 28.7 Km\h Scotto C1 2010
31/08/2012 Show to everybody no_comment____con_michele 81.12 Km 861 m 03:06:06 26.15 Km\h Scotto C1 2010
28/08/2012 Show to everybody solitaria_pianura_forio__sant_an 79.74 Km 1869 m 03:11:20 25.01 Km\h Scotto C1 2010
26/08/2012 Show to everybody _pianura__a_forio_e_2_giri_dell_ 108.91 Km 2026 m 04:16:51 25.44 Km\h Scotto C1 2010
24/08/2012 Show to everybody pianura_da_matti_e_giro_dell_iso 98.98 Km 1150 m 03:46:11 26.26 Km\h Scotto C1 2010
23/08/2012 Show to everybody scarico_con_michele 67.98 Km 706 m 02:11:52 30.93 Km\h Scotto C1 2010
21/08/2012 Show to everybody pianura_con_cicliscotto_ischia_e 91.28 Km 591 m 02:49:39 32.28 Km\h Scotto C1 2010
19/08/2012 Show to everybody salite_ 102.85 Km 1659 m 04:16:49 24.03 Km\h Scotto C1 2010
17/08/2012 Show to everybody pianura_giro_epomeo_con_michele_ 87.91 Km 1140 m 03:31:21 24.96 Km\h Scotto C1 2010
16/08/2012 Show to everybody pianura_con_michele_ernesto_e_le 72.53 Km 718 m 02:25:33 29.9 Km\h Scotto C1 2010
14/08/2012 Show to everybody con_michele__ernesto_e_un_pò_con 106.38 Km 1112 m 03:59:04 26.7 Km\h Scotto C1 2010
12/08/2012 Show to everybody con_michele2 100.53 Km 1203 m 03:58:51 25.25 Km\h Scotto C1 2010
10/08/2012 Show to everybody con_michele 91.06 Km 1415 m 03:46:00 24.17 Km\h Scotto C1 2010
07/08/2012 Show to everybody con_emilio2 100.09 Km 833 m 03:18:06 30.32 Km\h Scotto C1 2010
05/08/2012 Show to everybody con_la_ciclistica_forio 112.31 Km 1544 m 04:03:56 27.63 Km\h Scotto C1 2010
03/08/2012 Show to everybody stanchissimo_con_michele 77.83 Km 1097 m 03:09:28 24.65 Km\h Scotto C1 2010
02/08/2012 Show to everybody con_emilio1 71.29 Km 673 m 02:25:30 29.4 Km\h Scotto C1 2010
29/07/2012 Show to everybody foto_del_team_e_giro_dell_isola 75.74 Km 1038 m 02:53:07 26.25 Km\h Scotto C1 2010
27/07/2012 Show to everybody pianura_ad_alta_velocità_e_giro_ 102.26 Km 1091 m 03:29:52 29.24 Km\h Scotto C1 2010
25/07/2012 Show to everybody con_emilio 81.51 Km 752 m 02:53:54 28.12 Km\h Scotto C1 2010
22/07/2012 Show to everybody lunga_uscita_distruttiva 128.01 Km 1050 m 04:15:26 30.07 Km\h Scotto C1 2010
20/07/2012 Show to everybody lungo_con_michele 125.08 Km 1492 m 04:36:32 27.14 Km\h Scotto C1 2010
17/07/2012 Show to everybody finalmente_una_bella_giornata_tr 76.79 Km 1362 m 02:53:41 26.53 Km\h Scotto C1 2010
15/07/2012 Show to everybody giornata_trascorsa_un_pò_con_tut 114.11 Km 832 m 03:59:09 28.63 Km\h Scotto C1 2010
13/07/2012 Show to everybody pianura_e_giro_con_michele 100.01 Km 1169 m 03:40:18 27.24 Km\h Scotto C1 2010
10/07/2012 Show to everybody giro_dell_isola_e_un_pò_di_pianu 57.16 Km 868 m 02:12:19 25.92 Km\h Scotto C1 2010
08/07/2012 Show to everybody gf_altipiani_maggiori_d_abruzzo 89.99 Km 968 m 02:39:39 33.82 Km\h Scotto C1 2010
06/07/2012 Show to everybody di_pomeriggio 64.13 Km 458 m 02:07:35 30.16 Km\h Scotto C1 2010
03/07/2012 Show to everybody ruota_spaccata 57.67 Km 435 m 02:02:03 28.35 Km\h Scotto C1 2010
01/07/2012 Show to everybody 2_giri_dell_isola___pianura 101 Km 1430 m 04:07:14 24.51 Km\h Scotto C1 2010
30/06/2012 Show to everybody cambio_comandi 32.69 Km 246 m 00:00:00 0 Km\h Scotto C1 2010
29/06/2012 Show to everybody pianura_tra_casamicciola_e_forio 97.37 Km 994 m 03:19:52 29.23 Km\h Scotto C1 2010
27/06/2012 Show to everybody stanco 75.8 Km 770 m 02:39:44 28.47 Km\h Scotto C1 2010
24/06/2012 Show to everybody pianura_e_giro_con_mal_di_testa 100.72 Km 1155 m 03:36:03 27.97 Km\h Scotto C1 2010
22/06/2012 Show to everybody giro_dell_isola_con_michele_poi_ 107.18 Km 1196 m 04:02:53 26.48 Km\h Scotto C1 2010
20/06/2012 Show to everybody scarico_con_emilio 58.9 Km 486 m 02:09:55 27.2 Km\h Scotto C1 2010
19/06/2012 Show to everybody pianura_a_velocità_sonica 98.59 Km 1005 m 03:04:51 32 Km\h Scotto C1 2010
17/06/2012 Show to everybody con_emilio_e_michele 99.03 Km 1361 m 03:28:33 28.49 Km\h Scotto C1 2010
14/06/2012 Show to everybody pianura_e_salita 99.03 Km 1361 m 03:28:33 28.49 Km\h Scotto C1 2010
12/06/2012 Show to everybody vento_fortissimo 62.58 Km 674 m 02:07:05 29.55 Km\h Scotto C1 2010
10/06/2012 Show to everybody con_l_influenza 103.34 Km 691 m 03:31:59 29.25 Km\h Scotto C1 2010
07/06/2012 Show to everybody pochi_ma_buoni 72.95 Km 764 m 02:18:53 31.52 Km\h Scotto C1 2010
05/06/2012 Show to everybody pianura_da_solo 80.35 Km 600 m 02:41:50 29.79 Km\h Scotto C1 2010
03/06/2012 Show to everybody tanti_km_di_pianura_e_giro_in_co 132.62 Km 1745 m 04:55:59 26.88 Km\h Scotto C1 2010
31/05/2012 Show to everybody pianura_casamicciola___forio 75.46 Km 715 m 02:35:48 29.06 Km\h Scotto C1 2010
29/05/2012 Show to everybody da_michele 29.18 Km 361 m 01:04:20 27.22 Km\h Scotto C1 2010
27/05/2012 Show to everybody rottura_levetta_cambio 76.75 Km 1230 m 02:43:51 28.1 Km\h Scotto C1 2010
24/05/2012 Show to everybody pianura_con_i_foriani__ 72.83 Km 876 m 02:19:23 31.35 Km\h Scotto C1 2010
22/05/2012 Show to everybody pioggia____ 26.37 Km 214 m 00:57:11 27.67 Km\h Scotto C1 2010
20/05/2012 Show to everybody nove_colli_2012 131.77 Km 2479 m 04:18:18 30.61 Km\h Scotto C1 2010
17/05/2012 Show to everybody pianura_con_francesco_controvent 68.11 Km 670 m 02:13:25 30.63 Km\h Scotto C1 2010
15/05/2012 Show to everybody 3_volte_a_fontana___giro 89.15 Km 1916 m 03:56:11 22.65 Km\h Scotto C1 2010
13/05/2012 Show to everybody da_solo___e_poi_a_vedere_il_tria 96.93 Km 1252 m 03:37:13 26.77 Km\h Scotto C1 2010
10/05/2012 Show to everybody ventaccio 55.05 Km 499 m 01:54:25 28.87 Km\h Scotto C1 2010
08/05/2012 Show to everybody stanchissimo___ 75.87 Km 764 m 02:41:24 28.2 Km\h Scotto C1 2010
03/05/2012 Show to everybody un_pò_stanco 61.49 Km 715 m 02:18:09 26.71 Km\h Scotto C1 2010
01/05/2012 Show to everybody pianura_e_poi_salita_a_fontana 124.71 Km 1633 m 04:10:02 29.93 Km\h Scotto C1 2010
29/04/2012 Show to everybody pianura_e_giro___ 98.17 Km 1501 m 03:35:48 27.29 Km\h Scotto C1 2010
27/04/2012 Show to everybody forio_con_francesco 58.07 Km 652 m 02:01:41 28.63 Km\h Scotto C1 2010
25/04/2012 Show to everybody giornata_no 44.86 Km 1104 m 01:56:36 23.08 Km\h Scotto C1 2010
24/04/2012 Show to everybody pianura_con_aniello_e_ciro 73.53 Km 686 m 02:25:23 30.35 Km\h Scotto C1 2010
22/04/2012 Show to everybody con_la_squadra_pianura_e_giro_de 95.52 Km 1597 m 03:10:00 30.16 Km\h Scotto C1 2010
19/04/2012 Show to everybody uscita_veloce 44.72 Km 364 m 01:30:23 29.69 Km\h Scotto C1 2010
18/04/2012 Show to everybody pianura_contro_vento 81.46 Km 732 m 02:41:39 30.24 Km\h Scotto C1 2010
15/04/2012 Show to everybody con_il_team 79.87 Km 1149 m 02:40:22 29.88 Km\h Scotto C1 2010
12/04/2012 Show to everybody pianura_con_vento 73.88 Km 368 m 02:25:22 30.49 Km\h Scotto C1 2010
10/04/2012 Show to everybody tutto_da_solo 139.54 Km 1895 m 05:11:25 26.88 Km\h Scotto C1 2010
06/04/2012 Show to everybody visita_biomeccanica 45.07 Km 629 m 01:39:37 27.15 Km\h Scotto C1 2010
03/04/2012 Show to everybody pianura_casamicciola_forio 71.3 Km 767 m 02:24:18 29.65 Km\h Scotto C1 2010
01/04/2012 Show to everybody giro_dell_isola_e_pianura 99.3 Km 1543 m 03:35:04 27.7 Km\h Scotto C1 2010
30/03/2012 Show to everybody passeggiata_con_vento_forte 47.28 Km 531 m 01:47:17 26.44 Km\h Scotto C1 2010
29/03/2012 Show to everybody pianura_prima_con_francesco_e_po 66.03 Km 674 m 02:15:52 29.16 Km\h Scotto C1 2010
27/03/2012 Show to everybody pianura_casamicciola_forio__poi_ 80.38 Km 932 m 02:43:31 29.5 Km\h Scotto C1 2010
25/03/2012 Show to everybody pianura_con_la_ciclistica_forio_ 98.29 Km 908 m 03:26:50 28.51 Km\h Scotto C1 2010
23/03/2012 Show to everybody prima_da_michele_poi_pianura 73.6 Km 948 m 02:32:59 28.87 Km\h Scotto C1 2010
20/03/2012 Show to everybody pianura_e_distanza 115.62 Km 1206 m 03:39:56 31.54 Km\h Scotto C1 2010
18/03/2012 Show to everybody pianura_e_giro 92.48 Km 1364 m 03:24:20 27.16 Km\h Scotto C1 2010
16/03/2012 Show to everybody pianura_casamicciola_forio 58.62 Km 444 m 01:53:28 31 Km\h Scotto C1 2010
14/03/2012 Show to everybody pianura_da_solo_a_forio 52.91 Km 541 m 01:47:04 29.65 Km\h Scotto C1 2010
09/03/2012 Show to everybody vento_fortissimo 44.4 Km 492 m 01:26:57 30.64 Km\h Scotto C1 2010
07/03/2012 Show to everybody pianura_da_solo 39.24 Km 352 m 01:17:08 30.52 Km\h Scotto C1 2010
06/03/2012 Show to everybody pianura_in_solitaria1 51.6 Km 589 m 01:42:39 30.16 Km\h Scotto C1 2010
04/03/2012 Show to everybody pianura_in_solitaria_a_tutta 97.88 Km 743 m 02:59:11 32.77 Km\h Scotto C1 2010
01/03/2012 Show to everybody pianura_per_forio 46.83 Km 554 m 01:35:05 29.55 Km\h Scotto C1 2010
28/02/2012 Show to everybody pianura_e_salita_da_solo 63.47 Km 855 m 02:07:52 29.78 Km\h Scotto C1 2010
26/02/2012 Show to everybody pianura_e_salita_a_tutta_ 74.35 Km 1143 m 02:22:12 31.37 Km\h Scotto C1 2010
24/02/2012 Show to everybody pianura_a_forio 60.25 Km 638 m 01:54:51 31.48 Km\h Scotto C1 2010
21/02/2012 Show to everybody passegiata 30.9 Km 352 m 01:08:52 26.92 Km\h Scotto C1 2010
19/02/2012 Show to everybody 7__giro_della_costiera_sorrentin 102.97 Km 1575 m 03:46:01 27.33 Km\h Scotto C1 2010
16/02/2012 Show to everybody salita_a_tutta_e_poi_pianura 60.43 Km 893 m 02:09:08 28.08 Km\h Scotto C1 2010
14/02/2012 Show to everybody pinura_con_vento 39.56 Km 493 m 01:24:00 28.26 Km\h Scotto C1 2010
13/02/2012 Show to everybody pianura_forio_da_solo 42.48 Km 472 m 01:33:27 27.28 Km\h Scotto C1 2010
09/02/2012 Show to everybody pianura_in_solitaria 46.66 Km 537 m 01:32:11 30.37 Km\h Scotto C1 2010
07/02/2012 Show to everybody giro_dell_isola_con_piccola_nevi 34.64 Km 879 m 01:35:40 21.72 Km\h Scotto C1 2010
06/02/2012 Show to everybody giro_dell_isola_con_la_neve 29.69 Km 727 m 01:27:17 20.41 Km\h Scotto C1 2010
31/01/2012 Show to everybody un_pò_con_daniele_e_il_resto_sol 55.11 Km 430 m 01:45:36 31.31 Km\h Scotto C1 2010
26/01/2012 Show to everybody ottima_uscita_con_michele_e_alfr 70.37 Km 905 m 02:18:48 30.42 Km\h Scotto C1 2010
24/01/2012 Show to everybody con_michele_e_daniele 65.32 Km 698 m 02:15:05 29.02 Km\h Scotto C1 2010
22/01/2012 Show to everybody giornata_indimenticabile_con_la_ 105.6 Km 1376 m 03:31:01 30.03 Km\h Scotto C1 2010
19/01/2012 Show to everybody pianura_e_salita_con_michele_e_a 42.13 Km 657 m 01:31:19 27.68 Km\h Scotto C1 2010
18/01/2012 Show to everybody passeggiata 24.03 Km 448 m 00:56:18 25.61 Km\h Scotto C1 2010
17/01/2012 Show to everybody pianura_con_quel_pazzo_di_michel 40.12 Km 447 m 01:25:02 28.31 Km\h Scotto C1 2010
12/01/2012 Show to everybody pianura_con_daniele 53.78 Km 597 m 01:46:23 30.33 Km\h Scotto C1 2010
10/01/2012 Show to everybody con_daniele_e_julio 44.49 Km 727 m 01:38:45 27.03 Km\h Scotto C1 2010
08/01/2012 Show to everybody pianura_a_34km_h_di_media___giro 90.85 Km 1414 m 03:09:16 28.8 Km\h Scotto C1 2010
06/01/2012 Show to everybody pianura_e_giro_dell_isola_contro 99.75 Km 1591 m 03:43:38 26.76 Km\h Scotto C1 2010
04/01/2012 Show to everybody uscita_con_frank_con_giro_dell_i 79.34 Km 1511 m 03:07:38 25.37 Km\h Scotto C1 2010
01/01/2012 Show to everybody primo_dell_anno_con_caduta_di_da 62.5 Km 687 m 02:14:08 27.96 Km\h Scotto C1 2010
30/12/2011 Show to everybody niente_vento_ma_pioggia 59.95 Km 947 m 02:05:45 28.61 Km\h Scotto C1 2010
28/12/2011 Show to everybody uscita_con_daniele 71.96 Km 980 m 02:30:38 28.66 Km\h Scotto C1 2010
26/12/2011 Show to everybody pianura_contro_un_vento_gelato 80.95 Km 941 m 02:40:46 30.21 Km\h Scotto C1 2010
23/12/2011 Show to everybody pomeriggio_in_bici 39.53 Km 408 m 01:28:30 26.8 Km\h Scotto C1 2010
20/12/2011 Show to everybody vento_freddo_e_forte 42.2 Km 758 m 01:39:29 25.45 Km\h Scotto C1 2010
18/12/2011 Show to everybody domenica_penosa 28.36 Km 379 m 01:06:16 25.68 Km\h Scotto C1 2010
14/12/2011 Show to everybody miracolo 45.33 Km 456 m 01:30:48 29.96 Km\h Scotto C1 2010
11/12/2011 Show to everybody domenica_di_stanchezza 101.73 Km 1106 m 03:40:38 27.67 Km\h Scotto C1 2010
08/12/2011 Show to everybody immacolata 106.35 Km 1338 m 03:57:41 26.85 Km\h Scotto C1 2010
05/12/2011 Show to everybody 18__compleanno 123.86 Km 1014 m 03:58:49 31.12 Km\h Scotto C1 2010
20/11/2011 Show to everybody allenamento_a_napoli 123.86 Km 1014 m 03:58:48 31.12 Km\h Scotto C1 2010
17/11/2011 Show to everybody pianura_con_caduta_di_daniele 49.63 Km 613 m 01:42:34 29.03 Km\h Scotto C1 2010
03/11/2011 Show to everybody pianura_con_daniele 31.35 Km 633 m 01:14:31 25.24 Km\h Scotto C1 2010
01/11/2011 Show to everybody pianura_e_giro_con_michele_e_ang 85.65 Km 1037 m 03:08:45 27.23 Km\h Scotto C1 2010
30/10/2011 Show to everybody domenica_di_fuoco_con_michele_e_ 122.26 Km 1300 m 04:13:43 28.91 Km\h Scotto C1 2010
28/10/2011 Show to everybody pianura_da_solo 64.71 Km 774 m 02:09:54 29.89 Km\h Scotto C1 2010
25/10/2011 Show to everybody pianura_in_solitaria 47.41 Km 383 m 01:32:20 30.81 Km\h Scotto C1 2010
23/10/2011 Show to everybody lunga_domenica_con_michele 127.32 Km 1734 m 04:36:01 27.68 Km\h Scotto C1 2010
20/10/2011 Show to everybody vento_e_pioggia 50.3 Km 809 m 01:41:21 29.78 Km\h Scotto C1 2010
18/10/2011 Show to everybody pianura_e_3_volate_con_daniele 61.11 Km 907 m 01:56:08 31.57 Km\h Scotto C1 2010
16/10/2011 Show to everybody domenica_con_daniele_e_michele 100.14 Km 1102 m 03:41:43 27.1 Km\h Scotto C1 2010
15/10/2011 Show to everybody una__bella__burrasca 61.36 Km 857 m 02:28:51 24.73 Km\h Scotto C1 2010
12/10/2011 Show to everybody scatti_in_pianura_e_salita 70.41 Km 870 m 02:40:00 26.4 Km\h Scotto C1 2010
10/10/2011 Show to everybody uscita_in_tardo_pomeriggio 50.45 Km 935 m 02:04:57 24.22 Km\h Scotto C1 2010
09/10/2011 Show to everybody ora_si_che_inzia_l_inverno 105.2 Km 1585 m 03:54:09 26.96 Km\h Scotto C1 2010
07/10/2011 Show to everybody giornata_da_dimenticare 54.63 Km 413 m 02:12:44 24.69 Km\h Scotto C1 2010
05/10/2011 Show to everybody pianura__scatti_in_salita___giro 88.84 Km 520 m 03:07:10 28.48 Km\h Scotto C1 2010
04/10/2011 Show to everybody pianura_con_daniele___volata 66.34 Km 407 m 02:10:28 30.51 Km\h Scotto C1 2010
02/10/2011 Show to everybody gf_monti_ausoni_2011 101.13 Km 1179 m 03:42:42 27.25 Km\h Scotto C1 2010
29/09/2011 Show to everybody pianura___volata 67.47 Km 846 m 01:58:00 34.3 Km\h Scotto C1 2010
27/09/2011 Show to everybody pianura_con_daniele2 83.57 Km 1187 m 02:39:31 31.43 Km\h Scotto C1 2010
25/09/2011 Show to everybody 1__cronometro_forio 19.58 Km 258 m 00:37:14 31.55 Km\h Scotto C1 2010
22/09/2011 Show to everybody pianura_con_michele_scotto 69.61 Km 677 m 02:19:06 30.03 Km\h Scotto C1 2010
20/09/2011 Show to everybody pianura_con_daniele 71.51 Km 512 m 02:24:16 29.74 Km\h Scotto C1 2010
18/09/2011 Show to everybody pedalata_ecologica_2011 57.62 Km 1170 m 03:21:49 17.13 Km\h Scotto C1 2010
15/09/2011 Show to everybody riscaldamento_e_prova_circuito 58.18 Km 514 m 01:57:17 29.76 Km\h Scotto C1 2010
13/09/2011 Show to everybody prova_cronometro_e_defaticamento 57.06 Km 342 m 02:10:29 26.24 Km\h Scotto C1 2010
11/09/2011 Show to everybody domenica_in_compagnia 115.92 Km 984 m 04:38:41 24.96 Km\h Scotto C1 2010
10/09/2011 Show to everybody cambio_comandi 23.92 Km 416 m 00:54:39 26.26 Km\h Scotto C1 2010
09/09/2011 Show to everybody bella_mattinata_con_michele 99.7 Km 706 m 03:58:17 25.1 Km\h Scotto C1 2010
06/09/2011 Show to everybody uscita_rilassante 49.06 Km 471 m 01:49:15 26.94 Km\h Scotto C1 2010
04/09/2011 Show to everybody solo_con_il_34_ 114.87 Km 1028 m 04:15:17 27 Km\h Scotto C1 2010
02/09/2011 Show to everybody pinuara_di_pomeriggio 43.86 Km 550 m 01:40:11 26.27 Km\h Scotto C1 2010
30/08/2011 Show to everybody pianura_con_pioggia 41.7 Km 196 m 01:19:55 31.31 Km\h Scotto C1 2010
28/08/2011 Show to everybody domenica_di_mal_di_pancia 107.97 Km 950 m 04:14:14 25.48 Km\h Scotto C1 2010
25/08/2011 Show to everybody pianura_in_agilità 62.41 Km 312 m 02:03:40 30.28 Km\h Scotto C1 2010
23/08/2011 Show to everybody ancora_problemi___ 105.32 Km 961 m 03:50:50 27.38 Km\h Scotto C1 2010
21/08/2011 Show to everybody distrutto 105.32 Km 961 m 03:50:51 27.37 Km\h Scotto C1 2010
18/08/2011 Show to everybody pianura_di_prima_mattina 61.93 Km 728 m 02:16:21 27.25 Km\h Scotto C1 2010
16/08/2011 Show to everybody troppe_auto___ 56.18 Km 268 m 02:05:43 26.81 Km\h Scotto C1 2010
14/08/2011 Show to everybody domenica_pomeriggio2 49.4 Km 230 m 01:43:29 28.64 Km\h Scotto C1 2010
11/08/2011 Show to everybody mezzogiorno 57.75 Km 484 m 02:08:14 27.02 Km\h Scotto C1 2010
09/08/2011 Show to everybody che_vento__ 36.63 Km 208 m 01:17:17 28.44 Km\h Scotto C1 2010
07/08/2011 Show to everybody domenica_pomeriggio 60.55 Km 458 m 02:08:40 28.23 Km\h Scotto C1 2010
04/08/2011 Show to everybody rottura_tacchette 31.07 Km 374 m 01:03:11 29.5 Km\h Scotto C1 2010
03/08/2011 Show to everybody dopo_pranzo____che_caldo 38.39 Km 144 m 01:17:23 29.77 Km\h Scotto C1 2010
02/08/2011 Show to everybody con_solo_3_ore_di__sonno_ 50.14 Km 433 m 01:39:24 30.26 Km\h Scotto C1 2010
31/07/2011 Show to everybody domenica_in_gruppo 99.86 Km 1122 m 03:56:28 25.34 Km\h Scotto C1 2010
27/07/2011 Show to everybody pomeriggio 50.55 Km 532 m 02:01:40 24.93 Km\h Scotto C1 2010
26/07/2011 Show to everybody la_stanchezza_si_fa_sentire 52.16 Km 1002 m 02:03:17 25.39 Km\h Scotto C1 2010
24/07/2011 Show to everybody domenica_estiva_molto_strana 110.31 Km 1292 m 04:06:14 26.88 Km\h Scotto C1 2010
21/07/2011 Show to everybody pianura_con_michele 62.78 Km 658 m 01:55:23 32.64 Km\h Scotto C1 2010
19/07/2011 Show to everybody pianura2 44 Km 380 m 01:28:20 29.89 Km\h Scotto C1 2010
17/07/2011 Show to everybody foto_squadra_e_giro_dell_isola 63.38 Km 960 m 02:35:12 24.5 Km\h Scotto C1 2010
14/07/2011 Show to everybody pianura 44.2 Km 343 m 01:22:20 32.21 Km\h Scotto C1 2010
12/07/2011 Show to everybody pianura_in_gruppo 44.26 Km 506 m 01:23:12 31.92 Km\h Scotto C1 2010
11/07/2011 Show to everybody passatempo 49.97 Km 468 m 01:59:55 25 Km\h Scotto C1 2010
10/07/2011 Show to everybody pianura_post_caduta 48.46 Km 395 m 01:46:37 27.27 Km\h Scotto C1 2010
08/07/2011 Show to everybody post_caduta 23.95 Km 416 m 00:58:10 24.7 Km\h Scotto C1 2010
05/07/2011 Show to everybody pianura_con_caduta 45.22 Km 343 m 01:32:26 29.35 Km\h Scotto C1 2010
04/07/2011 Show to everybody Scarico in relax 41.04 Km 436 m 01:42:10 24.1 Km\h Scotto C1 2010
03/07/2011 Show to everybody Lungo 126.77 Km 1465 m 04:33:51 27.78 Km\h Scotto C1 2010
30/06/2011 Show to everybody Uscita con Daniele 51.76 Km 551 m 01:50:49 28.02 Km\h Scotto C1 2010
29/06/2011 Show to everybody Un pò di tempo libero 77.1 Km 1179 m 02:51:30 26.98 Km\h Scotto C1 2010
28/06/2011 Show to everybody Caldo 41.13 Km 805 m 01:39:55 24.7 Km\h Scotto C1 2010
26/06/2011 Show to everybody Solitaria Pianura 102.73 Km 1273 m 03:26:48 29.81 Km\h Scotto C1 2010
23/06/2011 Show to everybody Salite 39.2 Km 809 m 01:40:21 23.44 Km\h Scotto C1 2010
21/06/2011 Show to everybody Pianura 49.8 Km 427 m 01:32:06 32.44 Km\h Scotto C1 2010
19/06/2011 Show to everybody Solitaria 97.74 Km 1848 m 03:47:53 25.73 Km\h Scotto C1 2010
17/06/2011 Show to everybody Giro dell\`isola strade secondarie 42.95 Km 910 m 01:46:04 24.29 Km\h Scotto C1 2010
16/06/2011 Show to everybody 2 Giri dell\`isola 59.55 Km 1396 m 02:14:48 26.51 Km\h Scotto C1 2010
14/06/2011 Show to everybody Pianura a 38km/h di media alle 6 49.57 Km 459 m 01:26:39 34.32 Km\h Scotto C1 2010
12/06/2011 Show to everybody Domenica in compagnia 86.2 Km 1296 m 03:13:41 26.7 Km\h Scotto C1 2010
10/06/2011 Show to everybody Salitelle e cronoscalata 45.63 Km 828 m 01:52:26 24.35 Km\h Scotto C1 2010
09/06/2011 Show to everybody Ancora pianura in contro vento 65.95 Km 431 m 02:05:19 31.58 Km\h Scotto C1 2010
07/06/2011 Show to everybody Controvento in solitaria a tutta 63.45 Km 414 m 01:59:07 31.96 Km\h Scotto C1 2010
05/06/2011 Show to everybody Domenica di vento 61.26 Km 948 m 02:23:05 25.69 Km\h Scotto C1 2010
03/06/2011 Show to everybody Salitee 65.79 Km 1411 m 02:51:58 22.95 Km\h Scotto C1 2010
01/06/2011 Show to everybody Troppe Auto 53.16 Km 573 m 01:45:25 30.26 Km\h Scotto C1 2010
29/05/2011 Show to everybody Domenica un pò moscia 86.86 Km 1574 m 03:28:55 24.95 Km\h Scotto C1 2010
26/05/2011 Show to everybody Pianura e un pò di salita 76.28 Km 758 m 02:36:26 29.26 Km\h Scotto C1 2010
24/05/2011 Show to everybody Doveva essere scarico 68.99 Km 580 m 02:17:33 30.09 Km\h Scotto C1 2010
22/05/2011 Show to everybody Nove Colli 2011 133 Km 2367 m 04:52:59 27.24 Km\h Scotto C1 2010
19/05/2011 Show to everybody Ultimi rifinitura per la Nove Colli 84.57 Km 599 m 02:37:29 32.22 Km\h Scotto C1 2010
17/05/2011 Show to everybody Pianura e salita a tutta 61.21 Km 623 m 02:00:48 30.4 Km\h Scotto C1 2010
16/05/2011 Show to everybody Giretto 31.2 Km 521 m 01:09:54 26.78 Km\h Scotto C1 2010
15/05/2011 Show to everybody Pianura a casamicciola 96.72 Km 917 m 03:17:44 29.35 Km\h Scotto C1 2010
12/05/2011 Show to everybody Pianura e salita 72.67 Km 968 m 02:47:24 26.05 Km\h Scotto C1 2010
11/05/2011 Show to everybody 3 volte a fontana sant angelo maronti citara 85.88 Km 2033 m 03:38:01 23.63 Km\h Scotto C1 2010
10/05/2011 Show to everybody Manca metà allenamento a causa del gps 31.35 Km 633 m 01:14:32 25.24 Km\h Scotto C1 2010
08/05/2011 Show to everybody Preparazione Nove Colli 66.29 Km 1171 m 02:31:18 26.29 Km\h Scotto C1 2010
01/01/1970 Show to everybody activity_718345592 0 Km 0 m 0 Km\h Scotto C1 2010
01/01/1970 Show to everybody activity_746462628 0 Km 0 m 0 Km\h Scotto C1 2010
01/01/1970 Show to everybody activity_746462438 0 Km 0 m 0 Km\h Scotto C1 2010
01/01/1970 Show to everybody activity_718345592 0 Km 0 m 0 Km\h Scotto C1 2010
01/01/1970 Show to everybody pianura mattutina 0 Km 0 m 0 Km\h Scotto C1 2010
01/01/1970 Show to everybody activity_746462628 0 Km 0 m 0 Km\h Scotto C1 2010
01/01/1970 Show to everybody Finalmente allenamento con gruppo :) 0 Km 0 m 0 Km\h Scotto C1 2010
01/01/1970 Show to everybody Finalmente allenamento con gruppo :) 0 Km 0 m 0 Km\h Scotto C1 2010
01/01/1970 Show to everybody Finalmente allenamento con gruppo :) 0 Km 0 m 0 Km\h Scotto C1 2010
01/01/1970 Show to everybody Finalmente allenamento con gruppo :) 0 Km 0 m 0 Km\h Scotto C1 2010
01/01/1970 Show to everybody Allenamento 0 Km 0 m 0 Km\h Scotto C1 2010

Show previous years trainings
This user's bikes.
Scotto C1 2010 577 47405.31 Km 557536 m 838:59:59 28.3 Km/h

665 points
Kilometers
0
Vertical gain
1
Rank:24

Watch ranking »

 

Bike name

Delete this bike?

Now you follow this users and you can compare your trainings

If you stop following this users you will not be able to compare your trainings with his


bdc-forum.it | 2012-2019 Training Camp v.1.0.15